sensor_id;sensor_type;location;lat;lon;timestamp;P1;durP1;ratioP1;P2;durP2;ratioP2
41661;SDS011;27351;45.992;12.666;2023-05-07T00:01:06;9.13;;;5.60;;
41661;SDS011;27351;45.992;12.666;2023-05-07T00:03:32;8.60;;;5.23;;
41661;SDS011;27351;45.992;12.666;2023-05-07T00:05:58;10.55;;;5.45;;
41661;SDS011;27351;45.992;12.666;2023-05-07T00:08:24;8.77;;;5.50;;
41661;SDS011;27351;45.992;12.666;2023-05-07T00:10:49;8.70;;;5.60;;
41661;SDS011;27351;45.992;12.666;2023-05-07T00:13:15;9.98;;;5.85;;
41661;SDS011;27351;45.992;12.666;2023-05-07T00:15:41;9.95;;;6.45;;
41661;SDS011;27351;45.992;12.666;2023-05-07T00:18:06;9.05;;;6.05;;
41661;SDS011;27351;45.992;12.666;2023-05-07T00:20:32;11.07;;;6.03;;
41661;SDS011;27351;45.992;12.666;2023-05-07T00:22:57;8.73;;;5.87;;
41661;SDS011;27351;45.992;12.666;2023-05-07T00:25:23;9.70;;;5.82;;
41661;SDS011;27351;45.992;12.666;2023-05-07T00:27:49;8.48;;;5.90;;
41661;SDS011;27351;45.992;12.666;2023-05-07T00:30:14;10.23;;;6.20;;
41661;SDS011;27351;45.992;12.666;2023-05-07T00:32:40;8.90;;;5.90;;
41661;SDS011;27351;45.992;12.666;2023-05-07T00:35:06;9.27;;;6.10;;
41661;SDS011;27351;45.992;12.666;2023-05-07T00:37:32;9.00;;;6.00;;
41661;SDS011;27351;45.992;12.666;2023-05-07T00:39:58;9.20;;;6.55;;
41661;SDS011;27351;45.992;12.666;2023-05-07T00:42:23;8.80;;;6.07;;
41661;SDS011;27351;45.992;12.666;2023-05-07T00:44:49;8.90;;;6.07;;
41661;SDS011;27351;45.992;12.666;2023-05-07T00:47:15;10.40;;;6.03;;
41661;SDS011;27351;45.992;12.666;2023-05-07T00:49:41;8.45;;;5.57;;
41661;SDS011;27351;45.992;12.666;2023-05-07T00:52:08;11.98;;;5.93;;
41661;SDS011;27351;45.992;12.666;2023-05-07T00:54:34;8.77;;;5.65;;
41661;SDS011;27351;45.992;12.666;2023-05-07T00:57:01;7.70;;;5.32;;
41661;SDS011;27351;45.992;12.666;2023-05-07T00:59:27;10.33;;;5.70;;
41661;SDS011;27351;45.992;12.666;2023-05-07T01:01:53;8.63;;;6.10;;
41661;SDS011;27351;45.992;12.666;2023-05-07T01:04:19;10.13;;;5.87;;
41661;SDS011;27351;45.992;12.666;2023-05-07T01:06:45;11.17;;;6.03;;
41661;SDS011;27351;45.992;12.666;2023-05-07T01:09:10;8.20;;;5.53;;
41661;SDS011;27351;45.992;12.666;2023-05-07T01:11:36;8.63;;;6.17;;
41661;SDS011;27351;45.992;12.666;2023-05-07T01:14:02;9.67;;;6.30;;
41661;SDS011;27351;45.992;12.666;2023-05-07T01:16:28;9.77;;;6.43;;
41661;SDS011;27351;45.992;12.666;2023-05-07T01:18:53;9.90;;;6.25;;
41661;SDS011;27351;45.992;12.666;2023-05-07T01:21:19;9.52;;;6.07;;
41661;SDS011;27351;45.992;12.666;2023-05-07T01:23:47;8.60;;;5.95;;
41661;SDS011;27351;45.992;12.666;2023-05-07T01:26:13;9.33;;;6.43;;
41661;SDS011;27351;45.992;12.666;2023-05-07T01:28:41;9.30;;;6.32;;
41661;SDS011;27351;45.992;12.666;2023-05-07T01:31:06;9.50;;;6.20;;
41661;SDS011;27351;45.992;12.666;2023-05-07T01:33:34;9.67;;;6.40;;
41661;SDS011;27351;45.992;12.666;2023-05-07T01:36:01;9.90;;;5.93;;
41661;SDS011;27351;45.992;12.666;2023-05-07T01:38:31;9.02;;;6.10;;
41661;SDS011;27351;45.992;12.666;2023-05-07T01:40:57;10.85;;;6.63;;
41661;SDS011;27351;45.992;12.666;2023-05-07T01:43:24;10.00;;;6.20;;
41661;SDS011;27351;45.992;12.666;2023-05-07T01:45:49;9.25;;;6.05;;
41661;SDS011;27351;45.992;12.666;2023-05-07T01:48:15;11.85;;;6.75;;
41661;SDS011;27351;45.992;12.666;2023-05-07T01:50:41;10.18;;;6.70;;
41661;SDS011;27351;45.992;12.666;2023-05-07T01:53:07;9.95;;;6.10;;
41661;SDS011;27351;45.992;12.666;2023-05-07T01:55:32;10.13;;;6.23;;
41661;SDS011;27351;45.992;12.666;2023-05-07T01:57:58;9.48;;;6.10;;
41661;SDS011;27351;45.992;12.666;2023-05-07T02:00:24;8.60;;;5.97;;
41661;SDS011;27351;45.992;12.666;2023-05-07T02:02:49;10.27;;;6.40;;
41661;SDS011;27351;45.992;12.666;2023-05-07T02:05:33;9.97;;;6.20;;
41661;SDS011;27351;45.992;12.666;2023-05-07T02:08:22;8.27;;;5.07;;
41661;SDS011;27351;45.992;12.666;2023-05-07T02:10:48;8.73;;;5.35;;
41661;SDS011;27351;45.992;12.666;2023-05-07T02:13:15;7.82;;;4.80;;
41661;SDS011;27351;45.992;12.666;2023-05-07T02:15:40;8.25;;;4.95;;
41661;SDS011;27351;45.992;12.666;2023-05-07T02:18:07;8.27;;;4.93;;
41661;SDS011;27351;45.992;12.666;2023-05-07T02:20:33;8.45;;;5.18;;
41661;SDS011;27351;45.992;12.666;2023-05-07T02:22:59;8.73;;;5.63;;
41661;SDS011;27351;45.992;12.666;2023-05-07T02:25:27;7.93;;;5.13;;
41661;SDS011;27351;45.992;12.666;2023-05-07T02:27:54;7.20;;;4.95;;
41661;SDS011;27351;45.992;12.666;2023-05-07T02:30:24;8.20;;;5.10;;
41661;SDS011;27351;45.992;12.666;2023-05-07T02:32:52;11.30;;;5.13;;
41661;SDS011;27351;45.992;12.666;2023-05-07T02:35:18;8.77;;;5.07;;
41661;SDS011;27351;45.992;12.666;2023-05-07T02:37:44;10.43;;;6.43;;
41661;SDS011;27351;45.992;12.666;2023-05-07T02:40:09;7.82;;;5.25;;
41661;SDS011;27351;45.992;12.666;2023-05-07T02:42:35;7.75;;;5.22;;
41661;SDS011;27351;45.992;12.666;2023-05-07T02:45:01;8.03;;;5.60;;
41661;SDS011;27351;45.992;12.666;2023-05-07T02:47:27;8.77;;;5.30;;
41661;SDS011;27351;45.992;12.666;2023-05-07T02:49:54;9.57;;;5.83;;
41661;SDS011;27351;45.992;12.666;2023-05-07T02:52:20;9.63;;;5.82;;
41661;SDS011;27351;45.992;12.666;2023-05-07T02:54:46;7.97;;;5.57;;
41661;SDS011;27351;45.992;12.666;2023-05-07T02:57:11;9.13;;;5.90;;
41661;SDS011;27351;45.992;12.666;2023-05-07T02:59:37;9.27;;;6.30;;
41661;SDS011;27351;45.992;12.666;2023-05-07T03:02:02;8.80;;;5.70;;
41661;SDS011;27351;45.992;12.666;2023-05-07T03:04:28;9.30;;;6.10;;
41661;SDS011;27351;45.992;12.666;2023-05-07T03:06:54;8.67;;;6.47;;
41661;SDS011;27351;45.992;12.666;2023-05-07T03:09:20;9.77;;;6.23;;
41661;SDS011;27351;45.992;12.666;2023-05-07T03:11:45;10.27;;;6.57;;
41661;SDS011;27351;45.992;12.666;2023-05-07T03:14:11;9.03;;;6.50;;
41661;SDS011;27351;45.992;12.666;2023-05-07T03:16:37;10.17;;;5.60;;
41661;SDS011;27351;45.992;12.666;2023-05-07T03:19:03;10.35;;;6.30;;
41661;SDS011;27351;45.992;12.666;2023-05-07T03:21:29;9.07;;;6.50;;
41661;SDS011;27351;45.992;12.666;2023-05-07T03:23:56;9.10;;;6.60;;
41661;SDS011;27351;45.992;12.666;2023-05-07T03:26:21;9.13;;;6.28;;
41661;SDS011;27351;45.992;12.666;2023-05-07T03:28:47;8.35;;;5.93;;
41661;SDS011;27351;45.992;12.666;2023-05-07T03:31:15;8.67;;;6.20;;
41661;SDS011;27351;45.992;12.666;2023-05-07T03:33:59;8.90;;;6.35;;
41661;SDS011;27351;45.992;12.666;2023-05-07T03:36:25;9.77;;;6.03;;
41661;SDS011;27351;45.992;12.666;2023-05-07T03:38:54;9.60;;;6.00;;
41661;SDS011;27351;45.992;12.666;2023-05-07T03:41:23;9.57;;;6.40;;
41661;SDS011;27351;45.992;12.666;2023-05-07T03:43:49;8.87;;;6.43;;
41661;SDS011;27351;45.992;12.666;2023-05-07T03:46:14;8.70;;;6.10;;
41661;SDS011;27351;45.992;12.666;2023-05-07T03:48:41;10.40;;;6.45;;
41661;SDS011;27351;45.992;12.666;2023-05-07T03:51:07;9.67;;;6.63;;
41661;SDS011;27351;45.992;12.666;2023-05-07T03:53:33;9.37;;;6.53;;
41661;SDS011;27351;45.992;12.666;2023-05-07T03:55:59;9.80;;;6.88;;
41661;SDS011;27351;45.992;12.666;2023-05-07T03:58:24;9.35;;;6.22;;
41661;SDS011;27351;45.992;12.666;2023-05-07T04:00:52;11.35;;;5.93;;
41661;SDS011;27351;45.992;12.666;2023-05-07T04:03:23;8.90;;;5.77;;
41661;SDS011;27351;45.992;12.666;2023-05-07T04:05:49;9.27;;;5.85;;
41661;SDS011;27351;45.992;12.666;2023-05-07T04:08:14;11.48;;;6.80;;
41661;SDS011;27351;45.992;12.666;2023-05-07T04:10:45;9.75;;;6.28;;
41661;SDS011;27351;45.992;12.666;2023-05-07T04:13:12;10.25;;;6.10;;
41661;SDS011;27351;45.992;12.666;2023-05-07T04:15:38;9.70;;;6.82;;
41661;SDS011;27351;45.992;12.666;2023-05-07T04:18:07;9.00;;;6.37;;
41661;SDS011;27351;45.992;12.666;2023-05-07T04:20:34;8.63;;;6.03;;
41661;SDS011;27351;45.992;12.666;2023-05-07T04:23:03;10.32;;;6.10;;
41661;SDS011;27351;45.992;12.666;2023-05-07T04:25:29;8.75;;;6.30;;
41661;SDS011;27351;45.992;12.666;2023-05-07T04:28:01;9.15;;;6.10;;
41661;SDS011;27351;45.992;12.666;2023-05-07T04:30:28;8.88;;;5.72;;
41661;SDS011;27351;45.992;12.666;2023-05-07T04:32:54;9.13;;;5.77;;
41661;SDS011;27351;45.992;12.666;2023-05-07T04:35:21;8.77;;;5.80;;
41661;SDS011;27351;45.992;12.666;2023-05-07T04:37:47;7.82;;;5.38;;
41661;SDS011;27351;45.992;12.666;2023-05-07T04:40:13;9.03;;;5.43;;
41661;SDS011;27351;45.992;12.666;2023-05-07T04:42:39;8.95;;;5.57;;
41661;SDS011;27351;45.992;12.666;2023-05-07T04:45:07;9.43;;;6.00;;
41661;SDS011;27351;45.992;12.666;2023-05-07T04:47:34;8.80;;;5.85;;
41661;SDS011;27351;45.992;12.666;2023-05-07T04:50:01;10.23;;;5.43;;
41661;SDS011;27351;45.992;12.666;2023-05-07T04:52:26;9.13;;;5.77;;
41661;SDS011;27351;45.992;12.666;2023-05-07T04:54:52;8.80;;;6.03;;
41661;SDS011;27351;45.992;12.666;2023-05-07T04:57:18;10.57;;;5.93;;
41661;SDS011;27351;45.992;12.666;2023-05-07T04:59:44;9.50;;;5.30;;
41661;SDS011;27351;45.992;12.666;2023-05-07T05:02:10;8.93;;;5.80;;
41661;SDS011;27351;45.992;12.666;2023-05-07T05:04:36;8.60;;;5.50;;
41661;SDS011;27351;45.992;12.666;2023-05-07T05:07:03;8.75;;;5.88;;
41661;SDS011;27351;45.992;12.666;2023-05-07T05:09:30;8.98;;;5.80;;
41661;SDS011;27351;45.992;12.666;2023-05-07T05:11:55;8.80;;;5.40;;
41661;SDS011;27351;45.992;12.666;2023-05-07T05:14:21;7.97;;;5.60;;
41661;SDS011;27351;45.992;12.666;2023-05-07T05:16:47;9.10;;;5.80;;
41661;SDS011;27351;45.992;12.666;2023-05-07T05:19:13;8.15;;;5.53;;
41661;SDS011;27351;45.992;12.666;2023-05-07T05:21:40;8.50;;;5.78;;
41661;SDS011;27351;45.992;12.666;2023-05-07T05:24:08;8.80;;;5.72;;
41661;SDS011;27351;45.992;12.666;2023-05-07T05:26:34;9.00;;;5.60;;
41661;SDS011;27351;45.992;12.666;2023-05-07T05:29:00;9.50;;;5.95;;
41661;SDS011;27351;45.992;12.666;2023-05-07T05:31:28;8.48;;;5.53;;
41661;SDS011;27351;45.992;12.666;2023-05-07T05:33:54;7.50;;;5.07;;
41661;SDS011;27351;45.992;12.666;2023-05-07T05:36:19;8.50;;;5.50;;
41661;SDS011;27351;45.992;12.666;2023-05-07T05:38:47;9.45;;;5.70;;
41661;SDS011;27351;45.992;12.666;2023-05-07T05:41:13;7.50;;;4.80;;
41661;SDS011;27351;45.992;12.666;2023-05-07T05:43:38;8.23;;;5.35;;
41661;SDS011;27351;45.992;12.666;2023-05-07T05:46:04;7.73;;;4.67;;
41661;SDS011;27351;45.992;12.666;2023-05-07T05:48:30;8.30;;;5.10;;
41661;SDS011;27351;45.992;12.666;2023-05-07T05:50:57;8.15;;;4.75;;
41661;SDS011;27351;45.992;12.666;2023-05-07T05:53:23;6.93;;;4.90;;
41661;SDS011;27351;45.992;12.666;2023-05-07T05:55:49;7.88;;;4.70;;
41661;SDS011;27351;45.992;12.666;2023-05-07T05:58:15;7.53;;;4.75;;
41661;SDS011;27351;45.992;12.666;2023-05-07T06:00:45;7.95;;;4.65;;
41661;SDS011;27351;45.992;12.666;2023-05-07T06:03:11;6.50;;;4.32;;
41661;SDS011;27351;45.992;12.666;2023-05-07T06:05:37;6.72;;;4.28;;
41661;SDS011;27351;45.992;12.666;2023-05-07T06:08:04;8.27;;;4.40;;
41661;SDS011;27351;45.992;12.666;2023-05-07T06:10:32;7.80;;;4.40;;
41661;SDS011;27351;45.992;12.666;2023-05-07T06:12:57;6.07;;;3.97;;
41661;SDS011;27351;45.992;12.666;2023-05-07T06:15:23;6.72;;;4.45;;
41661;SDS011;27351;45.992;12.666;2023-05-07T06:17:53;6.93;;;4.67;;
41661;SDS011;27351;45.992;12.666;2023-05-07T06:20:21;8.53;;;4.80;;
41661;SDS011;27351;45.992;12.666;2023-05-07T06:22:46;7.27;;;4.57;;
41661;SDS011;27351;45.992;12.666;2023-05-07T06:25:14;6.82;;;4.40;;
41661;SDS011;27351;45.992;12.666;2023-05-07T06:27:41;7.60;;;4.57;;
41661;SDS011;27351;45.992;12.666;2023-05-07T06:30:07;6.73;;;4.70;;
41661;SDS011;27351;45.992;12.666;2023-05-07T06:32:33;7.30;;;5.03;;
41661;SDS011;27351;45.992;12.666;2023-05-07T06:34:59;8.63;;;5.28;;
41661;SDS011;27351;45.992;12.666;2023-05-07T06:37:26;8.82;;;4.93;;
41661;SDS011;27351;45.992;12.666;2023-05-07T06:39:55;7.88;;;5.22;;
41661;SDS011;27351;45.992;12.666;2023-05-07T06:42:21;7.47;;;5.32;;
41661;SDS011;27351;45.992;12.666;2023-05-07T06:44:48;9.27;;;5.63;;
41661;SDS011;27351;45.992;12.666;2023-05-07T06:47:16;10.05;;;6.03;;
41661;SDS011;27351;45.992;12.666;2023-05-07T06:49:43;8.48;;;5.47;;
41661;SDS011;27351;45.992;12.666;2023-05-07T06:52:13;7.22;;;5.15;;
41661;SDS011;27351;45.992;12.666;2023-05-07T06:54:39;10.53;;;6.33;;
41661;SDS011;27351;45.992;12.666;2023-05-07T06:57:05;7.83;;;5.07;;
41661;SDS011;27351;45.992;12.666;2023-05-07T06:59:31;8.15;;;5.20;;
41661;SDS011;27351;45.992;12.666;2023-05-07T07:01:58;8.35;;;4.78;;
41661;SDS011;27351;45.992;12.666;2023-05-07T07:04:23;7.75;;;4.60;;
41661;SDS011;27351;45.992;12.666;2023-05-07T07:06:58;7.68;;;4.57;;
41661;SDS011;27351;45.992;12.666;2023-05-07T07:09:24;7.90;;;5.00;;
41661;SDS011;27351;45.992;12.666;2023-05-07T07:11:51;7.05;;;4.57;;
41661;SDS011;27351;45.992;12.666;2023-05-07T07:14:18;7.20;;;4.30;;
41661;SDS011;27351;45.992;12.666;2023-05-07T07:16:48;7.75;;;4.57;;
41661;SDS011;27351;45.992;12.666;2023-05-07T07:19:16;7.03;;;4.85;;
41661;SDS011;27351;45.992;12.666;2023-05-07T07:21:42;7.95;;;4.60;;
41661;SDS011;27351;45.992;12.666;2023-05-07T07:24:10;8.27;;;5.28;;
41661;SDS011;27351;45.992;12.666;2023-05-07T07:26:35;10.83;;;4.80;;
41661;SDS011;27351;45.992;12.666;2023-05-07T07:29:02;7.93;;;4.50;;
41661;SDS011;27351;45.992;12.666;2023-05-07T07:31:28;6.65;;;4.20;;
41661;SDS011;27351;45.992;12.666;2023-05-07T07:33:54;9.05;;;4.93;;
41661;SDS011;27351;45.992;12.666;2023-05-07T07:36:20;8.50;;;4.27;;
41661;SDS011;27351;45.992;12.666;2023-05-07T07:38:46;6.90;;;4.20;;
41661;SDS011;27351;45.992;12.666;2023-05-07T07:41:12;7.43;;;4.70;;
41661;SDS011;27351;45.992;12.666;2023-05-07T07:43:37;7.63;;;4.50;;
41661;SDS011;27351;45.992;12.666;2023-05-07T07:46:03;6.47;;;4.63;;
41661;SDS011;27351;45.992;12.666;2023-05-07T07:48:30;7.33;;;4.43;;
41661;SDS011;27351;45.992;12.666;2023-05-07T07:50:58;9.70;;;4.80;;
41661;SDS011;27351;45.992;12.666;2023-05-07T07:53:23;8.05;;;3.92;;
41661;SDS011;27351;45.992;12.666;2023-05-07T07:55:49;7.70;;;4.15;;
41661;SDS011;27351;45.992;12.666;2023-05-07T07:58:18;7.57;;;4.20;;
41661;SDS011;27351;45.992;12.666;2023-05-07T08:00:44;6.60;;;3.97;;
41661;SDS011;27351;45.992;12.666;2023-05-07T08:03:10;6.73;;;4.10;;
41661;SDS011;27351;45.992;12.666;2023-05-07T08:05:39;7.35;;;4.55;;
41661;SDS011;27351;45.992;12.666;2023-05-07T08:08:05;6.70;;;4.10;;
41661;SDS011;27351;45.992;12.666;2023-05-07T08:10:33;6.70;;;4.25;;
41661;SDS011;27351;45.992;12.666;2023-05-07T08:13:04;7.00;;;3.83;;
41661;SDS011;27351;45.992;12.666;2023-05-07T08:15:30;6.95;;;4.10;;
41661;SDS011;27351;45.992;12.666;2023-05-07T08:17:56;7.20;;;3.70;;
41661;SDS011;27351;45.992;12.666;2023-05-07T08:20:26;6.53;;;3.90;;
41661;SDS011;27351;45.992;12.666;2023-05-07T08:22:52;7.28;;;4.00;;
41661;SDS011;27351;45.992;12.666;2023-05-07T08:25:18;6.95;;;3.60;;
41661;SDS011;27351;45.992;12.666;2023-05-07T08:27:44;6.55;;;3.67;;
41661;SDS011;27351;45.992;12.666;2023-05-07T08:30:11;7.47;;;3.30;;
41661;SDS011;27351;45.992;12.666;2023-05-07T08:32:36;6.37;;;3.43;;
41661;SDS011;27351;45.992;12.666;2023-05-07T08:35:02;6.03;;;3.40;;
41661;SDS011;27351;45.992;12.666;2023-05-07T08:37:28;6.40;;;3.40;;
41661;SDS011;27351;45.992;12.666;2023-05-07T08:39:54;5.22;;;3.22;;
41661;SDS011;27351;45.992;12.666;2023-05-07T08:42:23;7.75;;;3.55;;
41661;SDS011;27351;45.992;12.666;2023-05-07T08:44:50;6.55;;;3.50;;
41661;SDS011;27351;45.992;12.666;2023-05-07T08:47:19;6.93;;;4.28;;
41661;SDS011;27351;45.992;12.666;2023-05-07T08:49:45;7.57;;;4.07;;
41661;SDS011;27351;45.992;12.666;2023-05-07T08:52:12;8.48;;;3.70;;
41661;SDS011;27351;45.992;12.666;2023-05-07T08:54:38;4.47;;;2.93;;
41661;SDS011;27351;45.992;12.666;2023-05-07T08:57:06;5.47;;;3.10;;
41661;SDS011;27351;45.992;12.666;2023-05-07T08:59:34;4.60;;;2.95;;
41661;SDS011;27351;45.992;12.666;2023-05-07T09:02:00;4.97;;;3.30;;
41661;SDS011;27351;45.992;12.666;2023-05-07T09:04:26;5.10;;;3.15;;
41661;SDS011;27351;45.992;12.666;2023-05-07T09:06:53;4.97;;;3.05;;
41661;SDS011;27351;45.992;12.666;2023-05-07T09:09:21;7.35;;;2.97;;
41661;SDS011;27351;45.992;12.666;2023-05-07T09:11:47;6.07;;;3.47;;
41661;SDS011;27351;45.992;12.666;2023-05-07T09:14:17;6.40;;;3.40;;
41661;SDS011;27351;45.992;12.666;2023-05-07T09:16:47;5.20;;;3.30;;
41661;SDS011;27351;45.992;12.666;2023-05-07T09:19:13;6.38;;;3.25;;
41661;SDS011;27351;45.992;12.666;2023-05-07T09:21:43;4.82;;;3.00;;
41661;SDS011;27351;45.992;12.666;2023-05-07T09:24:10;6.22;;;3.05;;
41661;SDS011;27351;45.992;12.666;2023-05-07T09:26:39;5.10;;;3.03;;
41661;SDS011;27351;45.992;12.666;2023-05-07T09:29:07;5.82;;;3.35;;
41661;SDS011;27351;45.992;12.666;2023-05-07T09:31:35;5.95;;;3.30;;
41661;SDS011;27351;45.992;12.666;2023-05-07T09:34:01;5.85;;;3.30;;
41661;SDS011;27351;45.992;12.666;2023-05-07T09:36:31;8.10;;;3.30;;
41661;SDS011;27351;45.992;12.666;2023-05-07T09:38:59;5.25;;;3.33;;
41661;SDS011;27351;45.992;12.666;2023-05-07T09:41:25;6.00;;;3.42;;
41661;SDS011;27351;45.992;12.666;2023-05-07T09:44:06;8.70;;;3.70;;
41661;SDS011;27351;45.992;12.666;2023-05-07T09:46:36;5.18;;;3.05;;
41661;SDS011;27351;45.992;12.666;2023-05-07T09:49:11;6.70;;;3.30;;
41661;SDS011;27351;45.992;12.666;2023-05-07T09:51:45;5.47;;;3.00;;
41661;SDS011;27351;45.992;12.666;2023-05-07T09:54:14;5.13;;;2.97;;
41661;SDS011;27351;45.992;12.666;2023-05-07T09:56:44;6.32;;;3.20;;
41661;SDS011;27351;45.992;12.666;2023-05-07T09:59:12;7.53;;;3.40;;
41661;SDS011;27351;45.992;12.666;2023-05-07T10:01:40;5.67;;;3.37;;
41661;SDS011;27351;45.992;12.666;2023-05-07T10:04:06;5.68;;;3.50;;
41661;SDS011;27351;45.992;12.666;2023-05-07T10:06:34;7.15;;;3.80;;
41661;SDS011;27351;45.992;12.666;2023-05-07T10:09:00;6.28;;;3.47;;
41661;SDS011;27351;45.992;12.666;2023-05-07T10:11:26;7.43;;;3.70;;
41661;SDS011;27351;45.992;12.666;2023-05-07T10:13:52;5.35;;;3.28;;
41661;SDS011;27351;45.992;12.666;2023-05-07T10:16:19;5.40;;;3.38;;
41661;SDS011;27351;45.992;12.666;2023-05-07T10:18:46;6.03;;;3.63;;
41661;SDS011;27351;45.992;12.666;2023-05-07T10:21:20;6.47;;;3.90;;
41661;SDS011;27351;45.992;12.666;2023-05-07T10:23:49;6.05;;;3.40;;
41661;SDS011;27351;45.992;12.666;2023-05-07T10:26:17;6.20;;;3.38;;
41661;SDS011;27351;45.992;12.666;2023-05-07T10:28:45;5.95;;;3.30;;
41661;SDS011;27351;45.992;12.666;2023-05-07T10:33:56;5.75;;;3.20;;
41661;SDS011;27351;45.992;12.666;2023-05-07T10:36:24;7.68;;;4.10;;
41661;SDS011;27351;45.992;12.666;2023-05-07T10:38:52;5.67;;;3.17;;
41661;SDS011;27351;45.992;12.666;2023-05-07T10:41:18;7.40;;;3.10;;
41661;SDS011;27351;45.992;12.666;2023-05-07T10:43:45;6.33;;;3.60;;
41661;SDS011;27351;45.992;12.666;2023-05-07T10:46:31;6.77;;;3.67;;
41661;SDS011;27351;45.992;12.666;2023-05-07T10:49:18;10.40;;;5.00;;
41661;SDS011;27351;45.992;12.666;2023-05-07T10:52:05;5.53;;;3.45;;
41661;SDS011;27351;45.992;12.666;2023-05-07T10:54:34;6.40;;;3.53;;
41661;SDS011;27351;45.992;12.666;2023-05-07T11:05:30;6.20;;;3.25;;
41661;SDS011;27351;45.992;12.666;2023-05-07T11:08:19;5.30;;;2.90;;
41661;SDS011;27351;45.992;12.666;2023-05-07T11:10:57;6.38;;;3.28;;
41661;SDS011;27351;45.992;12.666;2023-05-07T11:16:38;5.65;;;3.70;;
41661;SDS011;27351;45.992;12.666;2023-05-07T11:19:24;4.78;;;3.20;;
41661;SDS011;27351;45.992;12.666;2023-05-07T11:22:04;5.60;;;3.30;;
41661;SDS011;27351;45.992;12.666;2023-05-07T11:24:39;6.45;;;3.65;;
41661;SDS011;27351;45.992;12.666;2023-05-07T11:27:06;7.65;;;3.83;;
41661;SDS011;27351;45.992;12.666;2023-05-07T11:29:32;6.43;;;3.50;;
41661;SDS011;27351;45.992;12.666;2023-05-07T11:32:04;6.05;;;3.60;;
41661;SDS011;27351;45.992;12.666;2023-05-07T11:34:37;5.93;;;3.55;;
41661;SDS011;27351;45.992;12.666;2023-05-07T11:37:04;7.15;;;3.88;;
41661;SDS011;27351;45.992;12.666;2023-05-07T11:40:08;6.50;;;3.57;;
41661;SDS011;27351;45.992;12.666;2023-05-07T11:42:36;7.75;;;4.40;;
41661;SDS011;27351;45.992;12.666;2023-05-07T11:45:06;7.90;;;4.10;;
41661;SDS011;27351;45.992;12.666;2023-05-07T11:47:32;6.35;;;3.90;;
41661;SDS011;27351;45.992;12.666;2023-05-07T11:50:03;6.15;;;4.38;;
41661;SDS011;27351;45.992;12.666;2023-05-07T11:52:29;5.70;;;3.70;;
41661;SDS011;27351;45.992;12.666;2023-05-07T11:54:55;7.27;;;4.13;;
41661;SDS011;27351;45.992;12.666;2023-05-07T11:57:22;6.97;;;4.07;;
41661;SDS011;27351;45.992;12.666;2023-05-07T11:59:47;8.23;;;4.30;;
41661;SDS011;27351;45.992;12.666;2023-05-07T12:02:14;7.70;;;4.00;;
41661;SDS011;27351;45.992;12.666;2023-05-07T12:04:40;6.47;;;4.23;;
41661;SDS011;27351;45.992;12.666;2023-05-07T12:07:11;6.47;;;4.43;;
41661;SDS011;27351;45.992;12.666;2023-05-07T12:09:37;6.63;;;4.28;;
41661;SDS011;27351;45.992;12.666;2023-05-07T12:12:03;6.72;;;4.28;;
41661;SDS011;27351;45.992;12.666;2023-05-07T12:14:29;10.60;;;4.10;;
41661;SDS011;27351;45.992;12.666;2023-05-07T12:16:54;8.57;;;4.50;;
41661;SDS011;27351;45.992;12.666;2023-05-07T12:19:20;7.47;;;4.70;;
41661;SDS011;27351;45.992;12.666;2023-05-07T12:21:47;6.88;;;4.20;;
41661;SDS011;27351;45.992;12.666;2023-05-07T12:24:14;6.65;;;4.40;;
41661;SDS011;27351;45.992;12.666;2023-05-07T12:26:40;9.15;;;4.82;;
41661;SDS011;27351;45.992;12.666;2023-05-07T12:29:07;5.90;;;3.90;;
41661;SDS011;27351;45.992;12.666;2023-05-07T12:31:32;7.40;;;4.50;;
41661;SDS011;27351;45.992;12.666;2023-05-07T12:33:58;7.13;;;4.10;;
41661;SDS011;27351;45.992;12.666;2023-05-07T12:36:23;6.17;;;3.80;;
41661;SDS011;27351;45.992;12.666;2023-05-07T12:38:50;7.78;;;4.15;;
41661;SDS011;27351;45.992;12.666;2023-05-07T12:41:15;6.45;;;4.38;;
41661;SDS011;27351;45.992;12.666;2023-05-07T12:43:44;7.70;;;5.20;;
41661;SDS011;27351;45.992;12.666;2023-05-07T12:46:11;7.65;;;4.47;;
41661;SDS011;27351;45.992;12.666;2023-05-07T12:48:43;7.72;;;4.68;;
41661;SDS011;27351;45.992;12.666;2023-05-07T12:51:10;7.53;;;4.18;;
41661;SDS011;27351;45.992;12.666;2023-05-07T12:53:42;7.95;;;4.50;;
41661;SDS011;27351;45.992;12.666;2023-05-07T12:56:08;7.15;;;4.53;;
41661;SDS011;27351;45.992;12.666;2023-05-07T12:58:34;7.70;;;4.65;;
41661;SDS011;27351;45.992;12.666;2023-05-07T13:01:03;7.25;;;4.30;;
41661;SDS011;27351;45.992;12.666;2023-05-07T13:03:30;7.30;;;4.50;;
41661;SDS011;27351;45.992;12.666;2023-05-07T13:05:57;6.53;;;4.32;;
41661;SDS011;27351;45.992;12.666;2023-05-07T13:08:24;6.35;;;4.28;;
41661;SDS011;27351;45.992;12.666;2023-05-07T13:10:50;6.88;;;4.47;;
41661;SDS011;27351;45.992;12.666;2023-05-07T13:13:15;6.83;;;4.13;;
41661;SDS011;27351;45.992;12.666;2023-05-07T13:15:41;6.90;;;4.13;;
41661;SDS011;27351;45.992;12.666;2023-05-07T13:18:06;6.90;;;4.45;;
41661;SDS011;27351;45.992;12.666;2023-05-07T13:20:32;7.60;;;4.83;;
41661;SDS011;27351;45.992;12.666;2023-05-07T13:22:58;8.45;;;4.55;;
41661;SDS011;27351;45.992;12.666;2023-05-07T13:25:26;6.43;;;4.18;;
41661;SDS011;27351;45.992;12.666;2023-05-07T13:27:51;7.93;;;4.70;;
41661;SDS011;27351;45.992;12.666;2023-05-07T13:30:17;7.63;;;4.53;;
41661;SDS011;27351;45.992;12.666;2023-05-07T13:32:42;6.68;;;4.85;;
41661;SDS011;27351;45.992;12.666;2023-05-07T13:35:08;7.67;;;4.90;;
41661;SDS011;27351;45.992;12.666;2023-05-07T13:37:33;7.67;;;4.97;;
41661;SDS011;27351;45.992;12.666;2023-05-07T13:39:59;8.32;;;5.03;;
41661;SDS011;27351;45.992;12.666;2023-05-07T13:42:25;9.47;;;5.17;;
41661;SDS011;27351;45.992;12.666;2023-05-07T13:44:50;9.73;;;5.47;;
41661;SDS011;27351;45.992;12.666;2023-05-07T13:47:16;8.00;;;5.43;;
41661;SDS011;27351;45.992;12.666;2023-05-07T13:49:41;9.07;;;5.93;;
41661;SDS011;27351;45.992;12.666;2023-05-07T13:52:07;7.95;;;5.15;;
41661;SDS011;27351;45.992;12.666;2023-05-07T13:54:32;7.13;;;5.40;;
41661;SDS011;27351;45.992;12.666;2023-05-07T13:56:58;8.47;;;6.00;;
41661;SDS011;27351;45.992;12.666;2023-05-07T13:59:23;9.27;;;6.40;;
41661;SDS011;27351;45.992;12.666;2023-05-07T14:01:49;10.30;;;7.20;;
41661;SDS011;27351;45.992;12.666;2023-05-07T14:04:14;10.15;;;5.78;;
41661;SDS011;27351;45.992;12.666;2023-05-07T14:06:40;11.70;;;6.20;;
41661;SDS011;27351;45.992;12.666;2023-05-07T14:09:05;9.37;;;6.10;;
41661;SDS011;27351;45.992;12.666;2023-05-07T14:11:31;10.35;;;6.43;;
41661;SDS011;27351;45.992;12.666;2023-05-07T14:13:57;9.67;;;5.97;;
41661;SDS011;27351;45.992;12.666;2023-05-07T14:16:23;8.32;;;5.65;;
41661;SDS011;27351;45.992;12.666;2023-05-07T14:18:49;9.13;;;6.33;;
41661;SDS011;27351;45.992;12.666;2023-05-07T14:21:14;7.53;;;5.73;;
41661;SDS011;27351;45.992;12.666;2023-05-07T14:23:40;9.75;;;6.22;;
41661;SDS011;27351;45.992;12.666;2023-05-07T14:26:05;8.70;;;5.80;;
41661;SDS011;27351;45.992;12.666;2023-05-07T14:28:31;10.37;;;6.47;;
41661;SDS011;27351;45.992;12.666;2023-05-07T14:30:56;8.53;;;5.47;;
41661;SDS011;27351;45.992;12.666;2023-05-07T14:33:22;9.63;;;6.33;;
41661;SDS011;27351;45.992;12.666;2023-05-07T14:35:47;8.13;;;5.40;;
41661;SDS011;27351;45.992;12.666;2023-05-07T14:38:15;7.47;;;5.25;;
41661;SDS011;27351;45.992;12.666;2023-05-07T14:40:41;9.43;;;5.78;;
41661;SDS011;27351;45.992;12.666;2023-05-07T14:43:06;7.80;;;5.38;;
41661;SDS011;27351;45.992;12.666;2023-05-07T14:45:32;7.50;;;5.43;;
41661;SDS011;27351;45.992;12.666;2023-05-07T14:47:57;8.40;;;4.95;;